Latest Weather Observations for Bega

IDN60801

Issued at 9:05 pm EST Thursday 31 July 2014 (issued every 30 minutes, with the page automatically refreshed every 10 minutes)

About weather observations | Map of weather stations | Latest weather observations for NSW | Other Formats
Station Details ID: 069139 Name: BEGA AWS Lat: -36.67 Lon: 149.82 Height: 41.0 m
Data from the previous 72 hours. | See also: Recent months at Bega
Date/Time
EST
Temp
°C
App
Temp
°C
Dew
Point
Rel
Hum
%
Delta-T
°C
Wind Press
QNH
hPa
Press
MSL
hPa
Rain
since 9 am
mm
Dir
 
Spd
km/h
Gust
km/h
Spd
kts
Gust
kts
31/09:00pm 20.6 12.3 -1.8 22 9.7 NW 32 61 17 33 998.9 999.0 0.0
31/08:30pm 20.4 11.9 -2.0 22 9.6 NW 33 56 18 30 999.1 - 0.0
31/08:00pm 20.4 12.8 -2.0 22 9.6 NW 28 63 15 34 998.7 - 0.0
31/07:41pm 20.7 12.8 -1.8 22 9.7 NW 30 69 16 37 998.9 - 0.0
31/07:30pm 20.2 13.1 -1.6 23 9.4 NW 26 41 14 22 999.0 - 0.0
31/07:00pm 20.2 12.4 -1.0 24 9.2 WNW 30 50 16 27 998.6 - 0.0
31/06:55pm 20.3 12.4 -1.5 23 9.4 WNW 30 50 16 27 998.6 - 0.0
31/06:30pm 20.3 14.8 -2.1 22 9.5 NW 17 32 9 17 998.0 - 0.0
31/06:02pm 21.1 13.4 -2.7 20 10.1 NW 28 46 15 25 997.4 - 0.0
31/06:00pm 20.9 12.9 -2.2 21 9.9 NW 30 46 16 25 997.5 997.6 0.0
31/05:54pm 21.1 13.4 -2.7 20 10.1 WNW 28 46 15 25 997.2 - 0.0
31/05:52pm 21.0 13.3 -2.8 20 10.0 WNW 28 44 15 24 997.2 - 0.0
31/05:30pm 20.6 15.8 -2.5 21 9.8 NW 13 24 7 13 997.2 - 0.0
31/05:00pm 21.1 15.0 -2.7 20 10.1 NW 20 37 11 20 997.1 - 0.0
31/04:30pm 21.8 17.4 -2.8 19 10.5 NW 11 30 6 16 996.9 - 0.0
31/04:01pm 22.9 14.5 -2.6 18 11.0 NNW 32 50 17 27 997.1 - 0.0
31/04:00pm 22.9 14.3 -2.6 18 11.0 NNW 33 50 18 27 997.1 - 0.0
31/03:30pm 23.4 15.9 -1.5 19 11.0 NW 28 52 15 28 997.3 - 0.0
31/03:00pm 23.4 14.8 -0.1 21 10.7 NNW 35 59 19 32 997.4 997.5 0.0
31/02:55pm 23.2 15.9 0.3 22 10.5 NNW 28 52 15 28 997.3 - 0.0
31/02:30pm 23.2 17.8 1.5 24 10.1 N 19 33 10 18 998.0 - 0.0
31/02:00pm 24.1 19.3 0.4 21 10.9 WNW 15 32 8 17 998.7 - 0.0
31/01:54pm 23.8 18.1 0.8 22 10.7 NNW 20 56 11 30 998.8 - 0.0
31/01:33pm 23.1 12.9 -0.4 21 10.7 NW 43 76 23 41 998.6 - 0.0
31/01:30pm 23.3 14.6 -0.2 21 10.6 NW 35 57 19 31 999.2 - 0.0
31/01:13pm 23.2 16.0 0.9 23 10.3 WNW 28 54 15 29 999.7 - 0.0
31/01:00pm 23.6 17.4 1.9 24 10.3 NNW 24 39 13 21 999.9 - 0.0
31/12:52pm 23.4 16.8 2.3 25 10.0 NW 26 56 14 30 1000.2 - 0.0
31/12:49pm 23.3 14.5 1.6 24 10.2 W 37 56 20 30 1000.3 - 0.0
31/12:48pm 23.2 13.2 0.9 23 10.3 W 43 56 23 30 1000.1 - 0.0
31/12:30pm 23.5 16.6 2.4 25 10.1 WNW 28 59 15 32 1000.9 - 0.0
31/12:25pm 23.0 15.8 0.8 23 10.3 WNW 28 59 15 32 1000.6 - 0.0
31/12:00pm 23.1 17.9 2.6 26 9.8 NNW 19 30 10 16 1001.5 1001.6 0.0
31/11:30am 22.5 17.2 3.1 28 9.3 N 20 30 11 16 1002.5 - 0.0
31/11:00am 22.6 17.6 3.7 29 9.2 NNW 19 28 10 15 1003.5 - 0.0
31/10:30am 21.5 15.1 3.2 30 8.7 NNW 26 43 14 23 1004.1 - 0.0
31/10:00am 21.1 17.1 5.1 35 7.9 N 15 20 8 11 1004.6 - 0.0
31/09:30am 20.0 15.6 4.9 37 7.4 N 17 24 9 13 1004.9 - 0.0
31/09:00am 18.8 13.6 5.6 42 6.5 N 22 35 12 19 1005.3 1005.4 0.0
31/08:42am 16.9 12.6 7.8 55 4.6 N 20 30 11 16 1005.6 - 0.0
31/08:37am 11.9 7.7 7.4 74 2.2 N 19 26 10 14 1005.7 - 0.0
31/08:30am 6.8 3.4 3.9 82 1.2 NW 11 20 6 11 1005.9 - 0.0
31/08:00am 3.6 0.8 3.0 96 0.2 SW 7 11 4 6 1006.3 - 0.0
31/07:30am 2.7 0.4 2.6 99 0.0 S 4 9 2 5 1006.5 - 0.0
31/07:00am 2.5 0.1 2.2 98 0.1 NW 4 7 2 4 1006.6 - 0.0
31/06:30am 2.1 -0.4 1.7 97 0.2 S 4 7 2 4 1006.9 - 0.0
31/06:00am 2.7 0.3 2.3 97 0.2 S 4 7 2 4 1007.2 1007.3 0.0
31/05:30am 3.3 1.4 2.9 97 0.2 SSE 2 9 1 5 1007.1 - 0.0
31/05:00am 2.9 1.2 2.0 94 0.4 CALM 0 0 0 0 1007.5 - 0.0
31/04:30am 3.8 2.0 3.2 96 0.2 WSW 2 7 1 4 1007.7 - 0.0
31/04:00am 3.8 2.3 3.1 95 0.3 CALM 0 7 0 4 1008.1 - 0.0
31/03:30am 3.8 2.3 2.9 94 0.4 CALM 0 0 0 0 1008.2 - 0.0
31/03:00am 4.2 1.6 3.2 93 0.4 SSE 6 9 3 5 1008.6 1008.7 0.0
31/02:30am 4.8 3.4 3.8 93 0.4 CALM 0 0 0 0 1008.8 - 0.0
31/02:00am 5.4 4.1 3.9 90 0.6 CALM 0 7 0 4 1009.1 - 0.0
31/01:30am 4.7 2.4 3.0 89 0.7 SSW 4 11 2 6 1009.5 - 0.0
31/01:00am 5.2 3.4 3.7 90 0.6 W 2 7 1 4 1009.5 - 0.0
31/12:30am 6.2 4.9 4.2 87 0.9 CALM 0 7 0 4 1009.7 - 0.0
31/12:00am 6.8 4.4 4.5 85 1.0 SSW 6 9 3 5 1010.0 1010.1 0.0
 
Date/Time
EST
Temp
°C
App
Temp
°C
Dew
Point
Rel
Hum
%
Delta-T
°C
Wind Press
QNH
hPa
Press
MSL
hPa
Rain
since 9 am
mm
Dir
 
Spd
km/h
Gust
km/h
Spd
kts
Gust
kts
30/11:30pm 7.9 6.8 5.0 82 1.3 CALM 0 0 0 0 1010.2 - 0.0
30/11:00pm 8.5 7.3 4.7 77 1.7 CALM 0 0 0 0 1010.4 - 0.0
30/10:30pm 9.7 8.6 5.1 73 2.1 CALM 0 6 0 3 1010.6 - 0.0
30/10:00pm 10.9 9.8 5.0 67 2.7 CALM 0 0 0 0 1010.8 - 0.0
30/09:30pm 12.1 9.3 5.3 63 3.1 WNW 9 13 5 7 1011.0 - 0.0
30/09:00pm 13.0 11.6 5.7 61 3.4 N 2 7 1 4 1011.0 1011.1 0.0
30/08:30pm 15.2 12.0 5.1 51 4.8 NW 11 13 6 7 1011.2 - 0.0
30/08:00pm 16.4 13.7 5.4 48 5.3 N 9 13 5 7 1011.2 - 0.0
30/07:30pm 15.9 12.5 5.8 51 4.9 NNW 13 24 7 13 1011.3 - 0.0
30/07:00pm 15.9 12.4 5.5 50 5.0 NNW 13 17 7 9 1011.3 - 0.0
30/06:30pm 17.1 14.0 5.4 46 5.6 NNW 11 15 6 8 1011.2 - 0.0
30/06:00pm 17.8 14.6 5.1 43 6.1 NNW 11 20 6 11 1011.0 1011.1 0.0
30/05:30pm 19.0 14.3 5.1 40 6.8 WNW 19 32 10 17 1010.8 - 0.0
30/05:00pm 19.1 14.8 5.2 40 6.8 WNW 17 28 9 15 1010.7 - 0.0
30/04:30pm 20.2 15.6 5.8 39 7.2 WNW 19 30 10 16 1010.4 - 0.0
30/04:00pm 21.1 16.9 5.5 36 7.8 WNW 17 30 9 16 1010.0 - 0.0
30/03:30pm 21.5 16.0 5.8 36 7.9 WNW 24 39 13 21 1010.0 - 0.0
30/03:00pm 22.0 16.5 5.8 35 8.2 WNW 24 35 13 19 1009.8 1009.9 0.0
30/02:30pm 22.4 17.3 6.2 35 8.2 WNW 22 37 12 20 1009.8 - 0.0
30/02:00pm 22.5 17.0 5.9 34 8.4 WNW 24 41 13 22 1009.8 - 0.0
30/01:30pm 22.3 16.8 5.7 34 8.3 W 24 35 13 19 1009.8 - 0.0
30/01:00pm 22.3 16.5 6.1 35 8.2 WNW 26 46 14 25 1010.1 - 0.0
30/12:57pm 22.2 15.9 5.6 34 8.3 WNW 28 46 15 25 1010.0 - 0.0
30/12:30pm 22.1 17.6 6.3 36 8.0 W 19 33 10 18 1010.4 - 0.0
30/12:00pm 21.8 17.4 6.5 37 7.8 WNW 19 41 10 22 1010.8 1010.9 0.0
30/11:30am 20.6 18.9 9.8 50 5.8 ENE 9 11 5 6 1011.2 - 0.0
30/11:00am 19.3 18.0 9.8 54 5.1 NE 7 11 4 6 1011.8 - 0.0
30/10:30am 17.4 15.9 8.5 56 4.6 E 6 9 3 5 1012.3 - 0.0
30/10:00am 14.7 14.2 8.0 64 3.3 CALM 0 0 0 0 1012.7 - 0.0
30/09:30am 13.5 13.0 7.7 68 2.9 CALM 0 0 0 0 1013.0 - 0.0
30/09:00am 10.2 9.4 6.7 79 1.6 CALM 0 0 0 0 1013.3 1013.4 0.0
30/08:30am 8.0 6.9 5.1 82 1.3 CALM 0 0 0 0 1013.3 - 0.0
30/08:00am 7.9 6.8 5.0 82 1.3 CALM 0 0 0 0 1012.9 - 0.0
30/07:30am 6.9 4.9 4.2 83 1.2 S 4 7 2 4 1012.6 - 0.0
30/07:00am 8.2 7.0 4.6 78 1.6 CALM 0 2 0 1 1012.3 - 0.0
30/06:30am 9.0 7.4 4.4 73 2.0 NNW 2 6 1 3 1012.0 - 0.0
30/06:00am 9.3 8.0 4.3 71 2.2 CALM 0 0 0 0 1011.5 1011.6 0.0
30/05:30am 9.9 8.6 4.3 68 2.5 CALM 0 0 0 0 1011.2 - 0.0
30/05:00am 11.1 9.9 4.8 65 2.9 CALM 0 7 0 4 1011.0 - 0.0
30/04:30am 15.0 11.1 5.2 52 4.6 NW 15 20 8 11 1010.3 - 0.0
30/04:00am 14.6 10.6 5.1 53 4.5 NW 15 20 8 11 1010.1 - 0.0
30/03:30am 14.4 10.8 5.2 54 4.3 WNW 13 13 7 7 1010.2 - 0.0
30/03:00am 15.6 12.8 5.2 50 4.9 WNW 9 11 5 6 1010.1 1010.2 0.0
30/02:30am 16.6 13.1 5.3 47 5.4 W 13 19 7 10 1010.3 - 0.0
30/02:00am 16.6 13.4 4.9 46 5.6 WNW 11 19 6 10 1010.3 - 0.0
30/01:30am 16.8 14.1 5.4 47 5.5 W 9 19 5 10 1010.2 - 0.0
30/01:00am 12.9 11.1 3.3 52 4.3 S 2 11 1 6 1009.9 - 0.0
30/12:30am 14.3 11.8 3.5 48 4.9 SSW 6 9 3 5 1009.3 - 0.0
30/12:00am 13.0 10.7 2.5 49 4.6 NE 4 7 2 4 1009.1 1009.2 0.0
 
Date/Time
EST
Temp
°C
App
Temp
°C
Dew
Point
Rel
Hum
%
Delta-T
°C
Wind Press
QNH
hPa
Press
MSL
hPa
Rain
since 9 am
mm
Dir
 
Spd
km/h
Gust
km/h
Spd
kts
Gust
kts
29/11:30pm 14.9 12.0 2.8 44 5.4 N 7 13 4 7 1009.6 - 0.0
29/11:00pm 15.7 12.0 2.5 41 5.9 WNW 11 20 6 11 1010.0 - 0.0
29/10:30pm 15.3 13.4 2.8 43 5.6 NNW 2 9 1 5 1009.9 - 0.0
29/10:00pm 15.5 12.7 2.3 41 5.9 WNW 6 11 3 6 1009.7 - 0.0
29/09:30pm 16.2 13.3 2.6 40 6.1 NW 7 15 4 8 1009.8 - 0.0
29/09:00pm 17.0 13.0 2.6 38 6.6 WNW 13 20 7 11 1009.9 1010.0 0.0
29/08:30pm 18.0 14.0 2.7 36 7.0 NW 13 24 7 13 1010.0 - 0.0
29/08:00pm 17.4 12.2 2.2 36 6.9 WSW 19 35 10 19 1009.7 - 0.0
29/07:30pm 15.0 12.3 2.5 43 5.6 W 6 13 3 7 1009.0 - 0.0
29/07:00pm 17.1 13.6 1.5 35 6.9 NNW 9 13 5 7 1008.3 - 0.0
29/06:30pm 17.7 13.9 1.7 34 7.2 WSW 11 15 6 8 1008.2 - 0.0
29/06:00pm 18.0 14.1 1.1 32 7.5 WSW 11 13 6 7 1008.2 1008.3 0.0
29/05:30pm 18.6 14.1 -0.2 28 8.2 W 13 24 7 13 1008.0 - 0.0
29/05:00pm 18.1 14.6 -1.7 26 8.3 W 7 9 4 5 1007.8 - 0.0
29/04:30pm 19.0 15.5 -1.4 25 8.7 N 7 11 4 6 1007.0 - 0.0
29/04:00pm 20.3 15.6 -1.5 23 9.4 NW 13 20 7 11 1007.2 - 0.0
29/03:30pm 22.6 19.5 1.6 25 9.8 NW 7 17 4 9 1007.2 - 0.0
29/03:00pm 22.5 16.7 -1.6 20 10.6 W 19 41 10 22 1007.3 1007.4 0.0
29/02:30pm 22.1 15.4 -1.2 21 10.2 W 24 43 13 23 1007.6 - 0.0
29/02:00pm 22.2 16.9 -0.5 22 10.1 WNW 17 32 9 17 1007.6 - 0.0
29/01:30pm 22.5 17.1 1.5 25 9.8 NW 19 30 10 16 1007.4 - 0.0
29/01:00pm 21.9 15.8 0.4 24 9.7 WNW 22 39 12 21 1007.4 - 0.0
29/12:50pm 21.9 14.7 1.0 25 9.6 NW 28 46 15 25 1007.4 - 0.0
29/12:45pm 21.6 13.5 0.8 25 9.5 W 33 56 18 30 1007.4 - 0.0
29/12:39pm 21.8 12.5 0.4 24 9.7 NW 39 56 21 30 1007.6 - 0.0
29/12:30pm 22.1 13.6 1.2 25 9.6 W 35 61 19 33 1008.0 - 0.0
29/12:00pm 21.7 14.9 2.9 29 8.9 W 28 50 15 27 1008.8 1008.9 0.0
29/11:30am 21.1 12.1 2.4 29 8.8 W 39 57 21 31 1009.4 - 0.0
29/11:06am 19.2 11.8 4.9 39 6.9 W 33 57 18 31 1010.4 - 0.0
29/11:00am 15.8 13.8 7.0 56 4.3 SSE 7 17 4 9 1010.4 - 0.0
29/10:30am 14.4 12.8 7.9 65 3.2 ENE 6 11 3 6 1010.5 - 0.0
29/10:00am 11.0 9.8 6.4 73 2.2 SE 2 9 1 5 1010.9 - 0.0
29/09:30am 8.3 5.9 5.1 80 1.4 S 7 9 4 5 1011.1 - 0.0
29/09:00am 5.8 4.0 3.3 84 1.0 SE 2 9 1 5 1011.4 1011.5 0.0
29/08:30am 3.9 2.2 2.1 88 0.7 CALM 0 0 0 0 1012.0 - 0.0
29/08:00am 2.9 1.2 1.7 92 0.5 CALM 0 0 0 0 1011.9 - 0.0
29/07:30am 1.6 -1.6 0.7 94 0.3 SSW 7 11 4 6 1012.2 - 0.0
29/07:00am 1.4 -0.5 0.7 95 0.3 CALM 0 0 0 0 1012.1 - 0.0
29/06:30am 1.0 -1.3 0.3 95 0.3 S 2 6 1 3 1012.1 - 0.0
29/06:00am 0.9 -1.0 0.5 97 0.1 CALM 0 9 0 5 1011.9 1012.0 0.0
29/05:30am 0.2 -3.0 -0.5 95 0.3 S 6 9 3 5 1011.8 - 0.0
29/05:00am 1.1 -2.1 0.5 96 0.2 SSW 7 7 4 4 1012.0 - 0.0
29/04:30am 1.1 -0.9 0.1 93 0.4 CALM 0 6 0 3 1012.1 - 0.0
29/04:00am 1.9 -0.3 1.0 94 0.3 NNE 2 7 1 4 1012.2 - 0.0
29/03:30am 2.1 -0.8 1.4 95 0.3 SW 6 9 3 5 1012.0 - 0.0
29/03:00am 2.2 -0.9 1.5 95 0.3 N 7 9 4 5 1012.4 1012.5 0.0
29/02:30am 2.3 0.1 1.3 93 0.4 WSW 2 7 1 4 1012.5 - 0.0
29/02:00am 2.4 0.2 1.1 91 0.5 ESE 2 7 1 4 1013.1 - 0.0
29/01:30am 2.8 0.6 1.3 90 0.6 SSW 2 6 1 3 1013.3 - 0.0
29/01:00am 3.3 1.6 1.8 90 0.6 CALM 0 6 0 3 1013.4 - 0.0
29/12:30am 3.4 0.3 1.6 88 0.7 S 7 9 4 5 1013.6 - 0.0
29/12:00am 4.4 2.0 1.9 84 1.0 SW 4 7 2 4 1013.8 1013.9 0.0
 
Date/Time
EST
Temp
°C
App
Temp
°C
Dew
Point
Rel
Hum
%
Delta-T
°C
Wind Press
QNH
hPa
Press
MSL
hPa
Rain
since 9 am
mm
Dir
 
Spd
km/h
Gust
km/h
Spd
kts
Gust
kts
28/11:30pm 4.7 1.8 2.6 86 0.9 SW 7 11 4 6 1014.2 - 0.0
28/11:00pm 4.3 2.6 2.0 85 0.9 CALM 0 0 0 0 1014.4 - 0.0
28/10:30pm 4.9 1.8 1.6 79 1.3 S 7 15 4 8 1014.7 - 0.0
28/10:00pm 4.7 0.9 1.7 81 1.2 SW 11 15 6 8 1015.1 - 0.0
28/09:30pm 6.0 2.8 3.2 82 1.2 SSW 9 11 5 6 1015.3 - 0.0

Other Formats:

Comma delimited format used in spreadsheet applications
http://www.bom.gov.au/fwo/IDN60801/IDN60801.95931.axf

JavaScript Object Notation format (JSON) in row-major order
http://www.bom.gov.au/fwo/IDN60801/IDN60801.95931.json